createdAt,value
2022-08-17T04:50:46.489Z,8.20
2022-08-17T04:53:15.279Z,7.75
2022-08-17T04:55:43.144Z,7.15
2022-08-17T05:04:42.189Z,6.65
2022-08-17T05:07:10.617Z,6.50
2022-08-17T05:09:38.212Z,5.95
2022-08-17T05:12:06.349Z,5.75
2022-08-17T05:14:34.061Z,5.90
2022-08-17T05:17:08.085Z,6.05
2022-08-17T05:19:39.412Z,5.35
2022-08-17T05:22:07.136Z,5.88
2022-08-17T05:24:42.618Z,5.35
2022-08-17T05:27:21.981Z,5.72
2022-08-17T05:29:51.184Z,5.80
2022-08-17T05:32:38.256Z,5.65
2022-08-17T05:35:07.812Z,5.78
2022-08-17T05:37:35.414Z,5.93
2022-08-17T05:40:03.345Z,5.95
2022-08-17T05:42:30.955Z,6.10
2022-08-17T05:44:59.138Z,5.97
2022-08-17T05:47:26.781Z,5.60
2022-08-17T05:49:54.415Z,6.35
2022-08-17T05:52:42.862Z,5.70
2022-08-17T05:55:16.921Z,5.82
2022-08-17T05:58:04.195Z,5.20
2022-08-17T06:00:33.570Z,6.38
2022-08-17T06:03:04.409Z,5.72
2022-08-17T06:05:53.023Z,5.32
2022-08-17T06:08:37.691Z,5.18
2022-08-17T06:11:05.247Z,5.53
2022-08-17T06:13:42.064Z,5.75
2022-08-17T06:16:34.183Z,5.43
2022-08-17T06:19:42.519Z,5.10
2022-08-17T06:22:13.550Z,5.30
2022-08-17T06:24:47.377Z,5.20
2022-08-17T06:27:35.824Z,4.53
2022-08-17T06:30:20.464Z,4.85
2022-08-17T06:32:49.806Z,5.00
2022-08-17T06:35:34.244Z,5.38
2022-08-17T06:38:33.955Z,5.18
2022-08-17T06:41:25.363Z,4.88
2022-08-17T06:44:02.204Z,5.00
2022-08-17T06:46:37.171Z,4.93
2022-08-17T06:49:14.148Z,4.97
2022-08-17T06:51:46.396Z,5.28
2022-08-17T06:54:40.160Z,4.55
2022-08-17T06:57:31.893Z,4.53
2022-08-17T07:00:04.124Z,5.43
2022-08-17T07:02:51.037Z,4.55
2022-08-17T07:05:20.881Z,4.85
2022-08-17T07:08:03.414Z,4.63
2022-08-17T07:10:48.974Z,5.10
2022-08-17T07:13:31.416Z,4.78
2022-08-17T07:16:11.194Z,4.55
2022-08-17T07:18:38.901Z,5.13
2022-08-17T07:21:34.544Z,4.85
2022-08-17T07:24:30.053Z,4.85
2022-08-17T07:27:10.822Z,4.40
2022-08-17T07:29:58.639Z,4.97
2022-08-17T07:32:31.674Z,4.38
2022-08-17T07:35:17.372Z,4.80
2022-08-17T07:38:25.394Z,4.30
2022-08-17T07:40:57.924Z,4.60
2022-08-17T07:43:26.415Z,4.38
2022-08-17T07:46:24.349Z,4.57
2022-08-17T07:48:56.913Z,4.53
2022-08-17T07:51:29.259Z,4.82
2022-08-17T07:54:13.503Z,5.05
2022-08-17T07:56:48.954Z,6.78
2022-08-17T07:59:18.432Z,4.65
2022-08-17T08:01:58.197Z,5.80
2022-08-17T08:07:17.697Z,5.32
2022-08-17T08:10:00.619Z,4.93
2022-08-17T08:12:34.268Z,4.63
2022-08-17T08:15:17.877Z,4.70
2022-08-17T08:17:54.553Z,5.47
2022-08-17T08:20:50.945Z,5.13
2022-08-17T08:23:39.618Z,4.20
2022-08-17T08:26:11.139Z,4.93
2022-08-17T08:28:52.293Z,4.88
2022-08-17T08:31:42.201Z,4.40
2022-08-17T08:37:17.757Z,3.78
2022-08-17T08:40:16.163Z,4.05
2022-08-17T08:42:56.582Z,3.88
2022-08-17T08:48:45.875Z,3.83
2022-08-17T08:51:22.117Z,3.53
2022-08-17T08:53:55.721Z,4.22
2022-08-17T08:56:58.999Z,4.45
2022-08-17T08:59:41.841Z,4.07
2022-08-17T09:02:34.852Z,4.80
2022-08-17T09:05:18.011Z,4.07
2022-08-17T09:07:57.608Z,4.32
2022-08-17T09:10:35.096Z,4.15
2022-08-17T09:13:15.363Z,4.40
2022-08-17T09:19:02.395Z,3.88
2022-08-17T09:21:52.762Z,5.03
2022-08-17T09:24:20.967Z,3.63
2022-08-17T09:26:54.092Z,4.38
2022-08-17T09:29:25.551Z,4.07
2022-08-17T09:31:58.618Z,4.22
2022-08-17T09:34:39.012Z,4.38
2022-08-17T09:37:23.301Z,3.83
2022-08-17T09:40:06.892Z,4.68
2022-08-17T09:42:59.040Z,4.20
2022-08-17T09:45:38.781Z,4.22
2022-08-17T09:48:12.444Z,4.40
